Latest Weather Observations for Launceston Airport

IDT60801

Issued at 5:02 am EST Thursday 2 July 2015 (issued every 30 minutes, with the page automatically refreshed every 10 minutes)

About weather observations | Map of weather stations | Latest weather observations for TAS | Other Formats
Station Details ID: 091311 Name: LAUNCESTON AIRPORT Lat: -41.55 Lon: 147.21 Height: 166.9 m
Data from the previous 72 hours. | See also: Recent months at Launceston Airport
Date/Time
EST
Temp
°C
App
Temp
°C
Dew
Point
Rel
Hum
%
Delta-T
°C
Wind Press
QNH
hPa
Press
MSL
hPa
Rain
since 9 am
mm
Dir
 
Spd
km/h
Gust
km/h
Spd
kts
Gust
kts
02/05:00am 2.9 -2.0 -0.7 77 1.3 NNW 15 19 8 10 1009.8 1010.2 1.4
02/04:30am 2.6 -2.4 -1.4 75 1.4 NW 15 19 8 10 1009.4 1009.8 1.4
02/04:00am 5.3 -1.3 -0.3 67 2.1 WNW 24 32 13 17 1009.3 1009.7 1.4
02/03:30am 5.9 0.2 0.3 67 2.2 WNW 20 28 11 15 1009.2 1009.6 1.4
02/03:00am 5.3 -0.2 0.5 71 1.9 WNW 19 24 10 13 1008.9 1009.3 1.2
02/02:30am 4.1 -0.3 0.3 76 1.5 NW 13 17 7 9 1008.6 1009.0 1.2
02/02:00am 4.9 -0.6 0.9 75 1.6 NW 19 24 10 13 1008.5 1008.9 1.2
02/01:30am 4.6 -0.4 1.1 78 1.4 NW 17 24 9 13 1008.5 1008.9 1.2
02/01:00am 4.3 -0.6 1.7 83 1.0 NW 17 20 9 11 1008.3 1008.7 1.2
02/12:00am 6.9 1.3 3.7 80 1.4 NNW 22 30 12 16 1008.1 1008.5 1.2
 
Date/Time
EST
Temp
°C
App
Temp
°C
Dew
Point
Rel
Hum
%
Delta-T
°C
Wind Press
QNH
hPa
Press
MSL
hPa
Rain
since 9 am
mm
Dir
 
Spd
km/h
Gust
km/h
Spd
kts
Gust
kts
01/11:30pm 7.1 2.0 4.2 82 1.3 NNW 20 26 11 14 1007.9 1008.3 1.2
01/11:00pm 8.2 1.7 4.8 79 1.5 NNW 28 37 15 20 1007.5 1007.9 1.2
01/10:30pm 8.5 2.4 4.9 78 1.6 NW 26 35 14 19 1007.5 1007.9 1.2
01/10:00pm 9.2 3.0 6.3 82 1.4 WNW 28 37 15 20 1008.0 1008.4 1.2
01/09:58pm 9.4 3.2 6.3 81 1.4 WNW 28 41 15 22 1008.0 1008.4 1.2
01/09:39pm 10.1 3.4 8.2 88 0.9 NW 33 44 18 24 1008.6 1009.0 1.0
01/09:30pm 10.2 2.7 8.1 87 1.0 NW 37 48 20 26 1008.2 1008.6 0.2
01/09:11pm 10.2 2.3 7.8 85 1.2 NNW 39 57 21 31 1008.2 1008.6 0.2
01/09:00pm 10.4 1.5 7.6 83 1.4 NNW 44 59 24 32 1007.9 1008.3 0.2
01/08:30pm 10.1 2.8 7.3 83 1.3 NNW 35 46 19 25 1008.2 1008.6 0.2
01/08:00pm 9.9 3.0 6.6 80 1.6 NNW 32 43 17 23 1008.9 1009.3 0.2
01/07:30pm 9.8 2.8 6.7 81 1.5 N 33 54 18 29 1009.6 1010.0 0.2
01/07:00pm 9.5 2.1 6.9 84 1.2 NNW 35 44 19 24 1010.8 1011.2 0.2
01/06:30pm 9.6 2.8 6.9 83 1.3 NNW 32 41 17 22 1011.2 1011.6 0.2
01/06:00pm 9.3 2.2 6.6 83 1.3 NNW 33 46 18 25 1011.5 1011.9 0.2
01/05:30pm 9.3 2.3 5.9 79 1.6 NNW 32 43 17 23 1012.2 1012.6 0.2
01/05:00pm 9.3 2.0 5.3 76 1.8 NNW 33 46 18 25 1012.4 1012.8 0.2
01/04:47pm 9.8 2.8 5.8 76 1.9 NW 32 52 17 28 1012.9 1013.3 0.2
01/04:30pm 9.0 1.7 5.6 79 1.6 NNW 33 41 18 22 1013.3 1013.7 0.2
01/04:10pm 9.6 2.1 6.3 80 1.5 NW 35 54 19 29 1013.5 1013.9 0.2
01/04:00pm 9.3 1.9 6.6 83 1.3 NNW 35 46 19 25 1013.7 1014.1 0.2
01/03:30pm 10.6 2.5 5.4 70 2.4 NNW 37 50 20 27 1014.0 1014.4 0.0
01/03:00pm 10.5 2.5 5.7 72 2.2 NNW 37 50 20 27 1014.0 1014.4 0.0
01/02:31pm 11.2 2.7 5.3 67 2.7 NW 39 59 21 32 1014.4 1014.8 0.0
01/02:30pm 11.7 3.4 6.0 68 2.7 NW 39 54 21 29 1014.5 1014.9 0.0
01/02:00pm 12.2 4.2 5.8 65 3.0 NNW 37 54 20 29 1015.1 1015.5 0.0
01/01:30pm 10.8 2.8 5.8 71 2.3 NNW 37 48 20 26 1015.9 1016.3 0.0
01/01:00pm 11.2 4.4 7.1 76 2.0 NNW 32 37 17 20 1016.8 1017.3 0.0
01/12:30pm 9.7 3.7 7.1 84 1.2 NNW 28 35 15 19 1017.7 1018.2 0.0
01/12:00pm 8.6 4.0 8.3 98 0.1 N 22 28 12 15 1018.6 1019.0 0.0
01/11:30am 8.6 4.1 8.5 99 0.0 NNW 22 28 12 15 1019.8 1020.2 0.0
01/11:10am 6.4 1.8 6.3 99 0.0 NNW 20 26 11 14 1020.3 1020.7 0.0
01/11:09am 6.8 2.2 6.7 99 0.0 NNW 20 28 11 15 1020.3 1020.7 0.0
01/11:07am 7.4 2.6 7.3 99 0.0 NNW 22 28 12 15 1020.3 1020.7 0.0
01/11:00am 6.7 1.7 6.4 98 0.1 NNW 22 30 12 16 1020.4 1020.8 0.0
01/10:51am 6.0 1.2 5.7 98 0.1 NNW 20 28 11 15 1020.6 1021.0 0.0
01/10:41am 4.7 0.2 4.4 98 0.1 N 17 20 9 11 1020.8 1021.2 0.0
01/10:35am 4.0 -0.6 3.9 99 0.0 N 17 20 9 11 1020.9 1021.3 0.0
01/10:30am 3.8 -0.4 3.7 99 0.0 N 15 19 8 10 1020.9 1021.3 0.0
01/10:00am 2.6 -1.5 2.5 99 0.0 N 13 17 7 9 1021.2 1021.6 0.0
01/09:30am 2.5 -1.2 2.4 99 0.0 N 11 13 6 7 1021.4 1021.8 0.0
01/09:13am 1.2 -2.3 1.1 99 0.0 N 9 11 5 6 1021.5 1021.9 0.0
01/09:11am 1.3 -2.2 1.2 99 0.0 N 9 11 5 6 1021.5 1021.9 0.0
01/09:10am 1.1 -2.4 1.0 99 0.0 N 9 11 5 6 1021.5 1021.9 0.0
01/09:09am 1.0 -2.6 0.9 99 0.0 N 9 11 5 6 1021.5 1021.9 0.0
01/09:07am 1.0 -2.6 0.9 99 0.0 N 9 11 5 6 1021.5 1021.9 0.0
01/09:06am 0.9 -2.7 0.8 99 0.0 N 9 13 5 7 1021.5 1021.9 0.0
01/09:05am 0.9 -2.7 0.8 99 0.0 N 9 13 5 7 1021.5 1021.9 0.0
01/09:03am 0.9 -2.7 0.8 99 0.0 N 9 13 5 7 1021.4 1021.8 0.0
01/09:01am 0.7 -2.9 0.6 99 0.0 N 9 13 5 7 1021.4 1021.8 0.0
01/09:00am 0.7 -2.9 0.6 99 0.0 N 9 13 5 7 1021.4 1021.8 0.2
01/08:56am 0.7 -3.3 0.6 99 0.0 N 11 13 6 7 1021.5 1021.9 0.2
01/08:55am 0.7 -3.3 0.6 99 0.0 N 11 13 6 7 1021.5 1021.9 0.2
01/08:45am 0.6 -3.0 0.5 99 0.0 N 9 11 5 6 1021.6 1022.0 0.2
01/08:44am 0.5 -3.1 0.4 99 0.0 N 9 11 5 6 1021.6 1022.0 0.2
01/08:41am 0.6 -3.0 0.5 99 0.0 N 9 11 5 6 1021.6 1022.0 0.2
01/08:38am 0.6 -3.0 0.5 99 0.0 N 9 11 5 6 1021.6 1022.0 0.2
01/08:37am 0.7 -2.9 0.6 99 0.0 N 9 11 5 6 1021.6 1022.0 0.2
01/08:30am 0.6 -3.4 0.5 99 0.0 N 11 13 6 7 1021.8 1022.2 0.2
01/08:12am 0.8 -3.2 0.7 99 0.0 NNW 11 13 6 7 1021.8 1022.2 0.2
01/08:06am 0.8 -3.5 0.7 99 0.0 NNW 13 15 7 8 1021.8 1022.2 0.2
01/08:05am 0.8 -3.5 0.7 99 0.0 NNW 13 15 7 8 1021.8 1022.2 0.2
01/08:00am 0.8 -3.5 0.7 99 0.0 NW 13 17 7 9 1022.0 1022.4 0.2
01/07:35am 0.3 -4.1 0.2 99 0.0 NW 13 17 7 9 1022.0 1022.4 0.2
01/07:34am 0.2 -4.2 0.1 99 0.0 NW 13 17 7 9 1022.0 1022.4 0.2
01/07:30am 0.1 -4.0 0.0 99 0.0 NNW 11 17 6 9 1022.0 1022.4 0.2
01/07:00am -0.4 -3.8 -0.5 99 0.0 NNW 7 9 4 5 1022.1 1022.5 0.2
01/06:30am 0.1 -3.2 0.0 99 0.0 N 7 9 4 5 1022.5 1022.9 0.2
01/06:00am 0.2 -3.5 0.1 99 0.0 NNW 9 9 5 5 1022.9 1023.4 0.2
01/05:30am 0.3 -2.8 0.2 99 0.0 NW 6 7 3 4 1023.0 1023.5 0.2
01/05:00am 0.3 -3.0 0.2 99 0.0 WNW 7 9 4 5 1022.9 1023.4 0.2
01/04:30am 0.2 -2.9 0.1 99 0.0 ENE 6 6 3 3 1022.9 1023.4 0.2
01/04:00am 0.2 -3.1 0.1 99 0.0 E 7 9 4 5 1023.1 1023.6 0.2
01/03:30am 0.2 -3.1 0.1 99 0.0 ENE 7 9 4 5 1023.5 1024.0 0.0
01/03:00am 0.9 -2.1 0.8 99 0.0 E 6 7 3 4 1023.7 1024.2 0.0
01/02:30am 0.9 -2.3 0.8 99 0.0 ENE 7 9 4 5 1023.8 1024.3 0.0
01/02:00am 1.6 -1.5 1.5 99 0.0 SW 7 9 4 5 1023.8 1024.3 0.0
01/01:30am 1.5 -1.4 1.4 99 0.0 SSW 6 7 3 4 1023.8 1024.3 0.0
01/01:00am 1.5 -1.6 1.4 99 0.0 S 7 11 4 6 1023.9 1024.4 0.0
01/12:30am 1.4 -1.7 1.3 99 0.0 WSW 7 9 4 5 1024.1 1024.6 0.0
01/12:00am 1.6 -1.5 1.5 99 0.0 SSW 7 9 4 5 1024.4 1024.8 0.0
 
Date/Time
EST
Temp
°C
App
Temp
°C
Dew
Point
Rel
Hum
%
Delta-T
°C
Wind Press
QNH
hPa
Press
MSL
hPa
Rain
since 9 am
mm
Dir
 
Spd
km/h
Gust
km/h
Spd
kts
Gust
kts
30/11:30pm 1.7 -0.8 1.4 98 0.1 SE 4 7 2 4 1024.8 1025.2 0.0
30/11:00pm 1.3 -2.2 1.2 99 0.0 S 9 13 5 7 1024.8 1025.2 0.0
30/10:56pm 1.3 -2.6 1.2 99 0.0 SSW 11 17 6 9 1024.9 1025.3 0.0
30/10:55pm 1.3 -2.6 1.2 99 0.0 SSW 11 17 6 9 1024.9 1025.3 0.0
30/10:49pm 1.5 -2.7 1.4 99 0.0 SSW 13 17 7 9 1024.8 1025.2 0.0
30/10:30pm 1.8 -2.8 1.5 98 0.1 SW 15 20 8 11 1024.6 1025.0 0.0
30/10:00pm 2.5 -0.8 2.2 98 0.1 SSW 9 13 5 7 1024.5 1024.9 0.0
30/09:57pm 2.5 -0.3 2.2 98 0.1 S 6 13 3 7 1024.5 1024.9 0.0
30/09:30pm 2.5 0.9 2.2 98 0.1 CALM 0 0 0 0 1024.6 1025.0 0.0
30/09:02pm 2.7 -0.2 2.4 98 0.1 SSW 7 11 4 6 1024.7 1025.1 0.0
30/09:00pm 2.7 -0.6 2.4 98 0.1 SSW 9 11 5 6 1024.8 1025.2 0.0
30/08:59pm 2.7 -0.2 2.4 98 0.1 SSW 7 11 4 6 1024.8 1025.2 0.0
30/08:57pm 2.7 -0.2 2.4 98 0.1 SSW 7 11 4 6 1024.8 1025.2 0.0
30/08:56pm 2.7 -0.6 2.4 98 0.1 SSW 9 11 5 6 1024.8 1025.2 0.0
30/08:55pm 2.7 -0.6 2.4 98 0.1 SSW 9 11 5 6 1024.8 1025.2 0.0
30/08:54pm 2.7 -0.6 2.4 98 0.1 SSW 9 11 5 6 1024.8 1025.2 0.0
30/08:34pm 2.8 -0.5 2.5 98 0.1 S 9 11 5 6 1024.8 1025.2 0.0
30/08:30pm 2.9 0.0 2.6 98 0.1 S 7 9 4 5 1024.8 1025.2 0.0
30/08:02pm 2.8 -0.9 2.5 98 0.1 SSW 11 15 6 8 1024.7 1025.1 0.0
30/08:00pm 2.8 -1.3 2.5 98 0.1 SSW 13 17 7 9 1024.7 1025.1 0.0
30/07:40pm 2.9 -0.4 2.6 98 0.1 SSW 9 13 5 7 1024.8 1025.2 0.0
30/07:34pm 3.1 -0.5 2.8 98 0.1 SSW 11 15 6 8 1024.7 1025.1 0.0
30/07:30pm 3.2 -0.8 2.9 98 0.1 SSW 13 17 7 9 1024.7 1025.1 0.0
30/07:00pm 3.4 -0.6 3.1 98 0.1 SSW 13 19 7 10 1024.6 1025.0 0.0
30/06:57pm 3.4 -0.2 3.1 98 0.1 SSW 11 15 6 8 1024.5 1024.9 0.0
30/06:56pm 3.4 -0.2 3.1 98 0.1 SSW 11 15 6 8 1024.5 1024.9 0.0
30/06:55pm 3.4 -0.2 3.1 98 0.1 SSW 11 13 6 7 1024.5 1024.9 0.0
30/06:53pm 3.4 -0.2 3.1 98 0.1 SSW 11 13 6 7 1024.4 1024.8 0.0
30/06:30pm 3.5 -0.1 3.2 98 0.1 SSW 11 15 6 8 1024.4 1024.8 0.0
30/06:18pm 3.4 0.8 3.1 98 0.1 SE 6 7 3 4 1024.2 1024.7 0.0
30/06:00pm 3.7 1.1 3.3 97 0.2 SSE 6 7 3 4 1024.4 1024.8 0.0
30/05:30pm 4.2 1.1 3.8 97 0.2 SSW 9 11 5 6 1024.2 1024.7 0.0
30/05:20pm 4.2 1.1 3.8 97 0.2 SSW 9 13 5 7 1024.2 1024.7 0.0
30/05:16pm 4.1 0.6 3.7 97 0.2 SSW 11 13 6 7 1024.2 1024.7 0.0
30/05:14pm 4.2 0.8 3.8 97 0.2 SSW 11 13 6 7 1024.1 1024.6 0.0
30/05:00pm 4.3 0.9 3.9 97 0.2 SSW 11 17 6 9 1024.1 1024.6 0.0
30/04:58pm 4.4 1.0 4.0 97 0.2 SSW 11 15 6 8 1024.1 1024.6 0.0
30/04:30pm 4.9 2.0 4.5 97 0.2 S 9 13 5 7 1023.9 1024.4 0.0
30/04:00pm 5.1 2.6 4.7 97 0.2 SSE 7 11 4 6 1023.7 1024.2 0.0
30/03:30pm 5.4 2.9 5.0 97 0.2 SSW 7 9 4 5 1023.6 1024.1 0.0
30/03:24pm 5.5 2.7 5.1 97 0.2 SSW 9 11 5 6 1023.5 1024.0 0.0
30/03:00pm 5.8 3.4 5.4 97 0.2 S 7 9 4 5 1023.5 1024.0 0.0
30/02:30pm 5.7 2.9 5.3 97 0.2 SE 9 11 5 6 1023.6 1024.1 0.0
30/02:00pm 5.2 2.3 4.8 97 0.2 S 9 15 5 8 1023.8 1024.3 0.0
30/01:54pm 5.1 2.2 4.7 97 0.2 S 9 15 5 8 1023.8 1024.3 0.0
30/01:48pm 4.7 1.4 4.3 97 0.2 SSW 11 15 6 8 1023.9 1024.4 0.0
30/01:44pm 4.9 1.6 4.5 97 0.2 SSW 11 15 6 8 1023.9 1024.4 0.0
30/01:30pm 4.7 1.7 4.3 97 0.2 SSW 9 13 5 7 1023.9 1024.4 0.0
30/01:27pm 4.5 1.5 4.1 97 0.2 SSW 9 13 5 7 1023.9 1024.4 0.0
30/01:00pm 4.7 2.1 4.3 97 0.2 SW 7 11 4 6 1024.1 1024.6 0.0
30/12:30pm 4.2 2.5 3.9 98 0.1 S 2 9 1 5 1024.6 1025.0 0.0
30/12:00pm 3.5 0.9 3.2 98 0.1 SSW 6 9 3 5 1025.3 1025.7 0.0
30/11:30am 3.4 0.2 3.1 98 0.1 SSW 9 15 5 8 1025.9 1026.3 0.0
30/11:03am 3.8 1.1 3.5 98 0.1 SSW 7 13 4 7 1026.1 1026.5 0.0
30/11:00am 3.6 0.8 3.3 98 0.1 SSW 7 13 4 7 1026.1 1026.5 0.0
30/10:41am 3.2 1.7 2.9 98 0.1 CALM 0 4 0 2 1026.2 1026.6 0.0
30/10:40am 3.3 1.8 3.0 98 0.1 CALM 0 0 0 0 1026.2 1026.6 0.0
30/10:30am 3.0 1.1 2.7 98 0.1 SSW 2 6 1 3 1026.3 1026.7 0.0
30/10:12am 2.9 0.2 2.6 98 0.1 WSW 6 9 3 5 1026.3 1026.7 0.0
30/10:09am 2.6 -0.4 2.3 98 0.1 WSW 7 11 4 6 1026.3 1026.7 0.0
30/10:00am 2.6 -0.7 2.3 98 0.1 SW 9 11 5 6 1026.3 1026.7 0.0
30/09:30am 2.5 -0.8 2.2 98 0.1 SSW 9 13 5 7 1026.2 1026.6 0.0
30/09:00am 2.6 -0.4 2.3 98 0.1 SSW 7 9 4 5 1026.1 1026.5 0.4
30/08:30am 2.7 0.0 2.4 98 0.1 SW 6 9 3 5 1026.0 1026.4 0.4
30/08:00am 2.1 -0.9 1.8 98 0.1 SSW 7 9 4 5 1025.8 1026.2 0.2
30/07:30am 1.5 -1.6 1.2 98 0.1 S 7 9 4 5 1025.5 1025.9 0.2
30/07:04am 1.6 -0.9 1.3 98 0.1 S 4 7 2 4 1025.4 1025.8 0.2
30/07:00am 1.7 -0.1 1.4 98 0.1 CALM 0 7 0 4 1025.4 1025.8 0.2
30/06:58am 1.9 0.2 1.6 98 0.1 CALM 0 4 0 2 1025.4 1025.8 0.2
30/06:49am 2.5 -0.3 2.2 98 0.1 S 6 9 3 5 1025.4 1025.8 0.2
30/06:44am 2.4 -0.4 2.1 98 0.1 S 6 9 3 5 1025.4 1025.8 0.2
30/06:31am 2.5 -0.3 2.2 98 0.1 S 6 7 3 4 1025.3 1025.7 0.2
30/06:30am 2.5 -0.3 2.2 98 0.1 S 6 7 3 4 1025.3 1025.7 0.2
30/06:10am 2.6 -0.2 2.3 98 0.1 SE 6 6 3 3 1025.1 1025.5 0.2
30/06:00am 2.6 -0.4 2.3 98 0.1 SE 7 7 4 4 1025.1 1025.5 0.2
30/05:30am 2.6 -0.4 2.3 98 0.1 SE 7 9 4 5 1025.3 1025.7 0.2
30/05:09am 3.3 0.5 2.9 97 0.2 S 7 9 4 5 1025.3 1025.7 0.2
30/05:00am 3.3 0.1 2.9 97 0.2 SSW 9 9 5 5 1025.3 1025.7 0.2
30/04:52am 3.6 0.8 3.2 97 0.2 SSE 7 9 4 5 1025.2 1025.6 0.2
30/04:30am 3.8 2.0 3.4 97 0.2 NNW 2 6 1 3 1025.1 1025.5 0.2
30/04:20am 3.9 2.1 3.5 97 0.2 NNW 2 6 1 3 1025.2 1025.6 0.2
30/04:00am 3.9 1.4 3.5 97 0.2 NNW 6 7 3 4 1025.2 1025.6 0.2
30/03:55am 3.9 1.4 3.5 97 0.2 NNW 6 7 3 4 1025.2 1025.6 0.2
30/03:30am 3.9 1.2 3.5 97 0.2 NW 7 9 4 5 1025.2 1025.6 0.2
30/03:00am 3.9 1.4 3.5 97 0.2 NNW 6 7 3 4 1025.4 1025.8 0.2
30/02:30am 3.7 1.1 3.3 97 0.2 N 6 7 3 4 1025.5 1025.9 0.2
30/02:14am 3.4 0.8 3.0 97 0.2 N 6 7 3 4 1025.5 1025.9 0.2
30/02:02am 3.4 1.9 3.0 97 0.2 CALM 0 4 0 2 1025.5 1025.9 0.2
30/02:00am 3.4 1.5 3.0 97 0.2 N 2 6 1 3 1025.6 1026.0 0.2
30/01:44am 3.3 0.6 2.9 97 0.2 N 6 7 3 4 1025.6 1026.0 0.2
30/01:30am 3.2 0.3 2.8 97 0.2 N 7 9 4 5 1025.6 1026.0 0.2
30/01:29am 2.8 -0.1 2.4 97 0.2 N 7 9 4 5 1025.6 1026.0 0.2
30/01:19am 2.8 0.1 2.4 97 0.2 NNW 6 9 3 5 1025.8 1026.2 0.2
30/01:00am 2.8 0.1 2.4 97 0.2 NNW 6 7 3 4 1025.8 1026.2 0.2
30/12:53am 3.1 0.2 2.7 97 0.2 NNW 7 9 4 5 1025.8 1026.2 0.2
30/12:52am 3.2 0.3 2.8 97 0.2 NNW 7 9 4 5 1025.8 1026.2 0.2
30/12:39am 4.1 1.4 3.7 97 0.2 N 7 7 4 4 1025.8 1026.2 0.2
30/12:32am 3.5 0.7 3.1 97 0.2 N 7 9 4 5 1025.9 1026.3 0.2
30/12:30am 3.3 0.5 2.9 97 0.2 N 7 9 4 5 1025.9 1026.3 0.2
30/12:27am 3.5 0.3 3.1 97 0.2 N 9 9 5 5 1025.9 1026.3 0.2
30/12:24am 3.8 0.7 3.4 97 0.2 N 9 11 5 6 1026.0 1026.4 0.2
30/12:00am 3.4 0.6 3.0 97 0.2 N 7 11 4 6 1026.0 1026.4 0.2
 
Date/Time
EST
Temp
°C
App
Temp
°C
Dew
Point
Rel
Hum
%
Delta-T
°C
Wind Press
QNH
hPa
Press
MSL
hPa
Rain
since 9 am
mm
Dir
 
Spd
km/h
Gust
km/h
Spd
kts
Gust
kts
29/11:41pm 1.9 -2.3 1.5 97 0.2 N 13 13 7 7 1026.1 1026.5 0.0
29/11:30pm 3.0 -1.0 2.6 97 0.2 N 13 13 7 7 1026.0 1026.4 0.0
29/11:27pm 3.7 -0.2 3.3 97 0.2 N 13 13 7 7 1026.0 1026.4 0.0
29/11:00pm 3.8 -0.1 3.4 97 0.2 NW 13 15 7 8 1026.0 1026.4 0.0
29/10:30pm 4.9 2.4 4.5 97 0.2 N 7 11 4 6 1026.3 1026.7 0.0
29/10:22pm 4.2 0.8 3.8 97 0.2 N 11 13 6 7 1026.3 1026.7 0.0
29/10:21pm 4.1 0.6 3.7 97 0.2 N 11 13 6 7 1026.3 1026.7 0.0
29/10:00pm 4.1 0.6 3.5 96 0.2 N 11 13 6 7 1026.3 1026.7 0.0
29/09:30pm 5.0 1.7 4.4 96 0.3 N 11 13 6 7 1026.5 1026.9 0.0
29/09:11pm 5.6 2.8 5.0 96 0.3 N 9 13 5 7 1026.6 1027.0 0.0
29/09:00pm 5.8 2.2 5.2 96 0.3 N 13 15 7 8 1026.6 1027.0 0.0
29/08:53pm 4.8 0.6 3.9 94 0.4 NNW 15 19 8 10 1026.6 1027.0 0.0
29/08:30pm 5.6 1.6 4.9 95 0.3 NNW 15 17 8 9 1026.6 1027.0 0.0
29/08:00pm 6.4 2.2 5.5 94 0.4 NNW 17 19 9 10 1026.5 1026.9 0.0
29/07:30pm 6.2 1.9 5.2 93 0.4 NNW 17 20 9 11 1026.4 1026.8 0.0
29/07:00pm 7.2 2.5 6.1 93 0.5 NNW 20 24 11 13 1026.4 1026.8 0.0
29/06:30pm 7.0 2.8 5.9 93 0.5 NNW 17 19 9 10 1026.3 1026.7 0.0
29/06:00pm 8.1 3.7 6.6 90 0.7 NNW 19 20 10 11 1026.2 1026.6 0.0
29/05:30pm 9.0 4.6 7.5 90 0.7 NNW 20 24 11 13 1026.1 1026.5 0.0
29/05:00pm 9.8 5.0 7.4 85 1.1 NNW 22 30 12 16 1026.2 1026.6 0.0
29/04:30pm 11.0 6.4 8.0 82 1.5 NNW 22 28 12 15 1026.1 1026.5 0.0
29/04:00pm 11.8 5.2 7.9 77 1.9 NNW 32 39 17 21 1026.0 1026.4 0.0
29/03:30pm 12.3 5.7 7.8 74 2.2 NNW 32 41 17 22 1025.8 1026.2 0.0
29/03:00pm 12.9 6.0 7.4 69 2.7 NNW 33 43 18 23 1025.5 1025.9 0.0
29/02:30pm 13.0 5.8 7.7 70 2.6 NNW 35 43 19 23 1025.5 1025.9 0.0
29/02:00pm 13.3 6.7 7.7 69 2.8 NNW 32 43 17 23 1025.7 1026.1 0.0
29/01:30pm 13.2 6.5 7.2 67 2.9 NNW 32 39 17 21 1025.9 1026.3 0.0
29/01:00pm 13.2 6.6 7.6 69 2.8 NNW 32 37 17 20 1026.1 1026.5 0.0
29/12:30pm 12.9 6.2 8.0 72 2.4 NNW 33 41 18 22 1026.4 1026.8 0.0
29/12:00pm 12.3 5.9 8.4 77 1.9 NNW 32 37 17 20 1026.9 1027.3 0.0
29/11:30am 11.6 5.5 8.3 80 1.6 NNW 30 37 16 20 1027.4 1027.8 0.0
29/11:00am 10.9 4.9 8.5 85 1.2 NNW 30 35 16 19 1027.8 1028.3 0.0
29/10:30am 10.6 5.0 8.7 88 0.9 NNW 28 35 15 19 1028.0 1028.5 0.0
29/10:00am 9.3 3.5 8.1 92 0.6 NNW 28 33 15 18 1028.3 1028.8 0.0
29/09:43am 8.7 3.6 7.6 93 0.5 NNW 24 30 13 16 1028.2 1028.7 0.0
29/09:30am 9.0 4.0 7.9 93 0.5 NNW 24 32 13 17 1028.2 1028.7 0.0
29/09:00am 8.7 4.0 7.9 95 0.4 NNW 22 28 12 15 1028.2 1028.7 0.2
29/08:30am 8.0 3.6 7.4 96 0.3 N 20 26 11 14 1028.1 1028.6 0.2
29/08:15am 7.6 3.3 7.0 96 0.3 N 19 24 10 13 1028.0 1028.5 0.2
29/08:01am 7.0 3.3 6.4 96 0.3 N 15 20 8 11 1028.0 1028.5 0.2
29/08:00am 6.6 2.8 6.0 96 0.3 N 15 20 8 11 1028.0 1028.5 0.2
29/07:46am 6.8 2.3 6.2 96 0.3 NNW 19 24 10 13 1027.8 1028.3 0.2
29/07:30am 6.9 1.5 6.2 95 0.3 NNW 24 28 13 15 1027.7 1028.1 0.2
29/07:00am 6.8 0.6 6.1 95 0.3 NW 28 32 15 17 1027.4 1027.8 0.2
29/06:30am 6.7 0.9 6.1 96 0.3 NW 26 30 14 16 1027.2 1027.6 0.2
29/06:00am 6.2 0.6 5.6 96 0.3 NW 24 26 13 14 1027.3 1027.7 0.2
29/05:30am 6.5 1.0 6.1 97 0.2 NW 24 28 13 15 1027.2 1027.6 0.0

Other Formats:

Comma delimited format used in spreadsheet applications
http://www.bom.gov.au/fwo/IDT60801/IDT60801.95966.axf

JavaScript Object Notation format (JSON) in row-major order
http://www.bom.gov.au/fwo/IDT60801/IDT60801.95966.json